sensor_id;sensor_type;location;lat;lon;timestamp;temperature;humidity
9939;DHT22;5008;50.656;7.188;2023-12-04T05:01:31;2.00;99.90
9939;DHT22;5008;50.656;7.188;2023-12-04T05:03:59;2.00;99.90
9939;DHT22;5008;50.656;7.188;2023-12-04T05:06:26;2.00;99.90
9939;DHT22;5008;50.656;7.188;2023-12-04T05:08:57;1.90;99.90
9939;DHT22;5008;50.656;7.188;2023-12-04T05:11:23;2.70;99.90
9939;DHT22;5008;50.656;7.188;2023-12-04T05:13:50;3.00;99.90
9939;DHT22;5008;50.656;7.188;2023-12-04T05:16:17;2.90;99.90
9939;DHT22;5008;50.656;7.188;2023-12-04T05:18:45;2.50;99.90
9939;DHT22;5008;50.656;7.188;2023-12-04T05:21:12;2.20;99.90
9939;DHT22;5008;50.656;7.188;2023-12-04T05:23:39;2.10;99.90
9939;DHT22;5008;50.656;7.188;2023-12-04T05:26:06;2.00;99.90
9939;DHT22;5008;50.656;7.188;2023-12-04T05:28:34;2.00;99.90
9939;DHT22;5008;50.656;7.188;2023-12-04T05:31:00;2.70;99.90
9939;DHT22;5008;50.656;7.188;2023-12-04T05:33:27;2.40;99.90
9939;DHT22;5008;50.656;7.188;2023-12-04T05:35:55;2.20;99.90
9939;DHT22;5008;50.656;7.188;2023-12-04T05:38:22;2.20;99.90
9939;DHT22;5008;50.656;7.188;2023-12-04T05:40:49;2.10;99.90
9939;DHT22;5008;50.656;7.188;2023-12-04T05:43:16;2.00;99.90
9939;DHT22;5008;50.656;7.188;2023-12-04T05:45:44;2.00;99.90
9939;DHT22;5008;50.656;7.188;2023-12-04T05:48:10;2.00;99.90
9939;DHT22;5008;50.656;7.188;2023-12-04T05:50:37;2.10;99.90
9939;DHT22;5008;50.656;7.188;2023-12-04T05:53:06;2.10;99.90
9939;DHT22;5008;50.656;7.188;2023-12-04T05:55:33;2.00;99.90
9939;DHT22;5008;50.656;7.188;2023-12-04T05:57:59;2.10;99.90
9939;DHT22;5008;50.656;7.188;2023-12-04T06:00:27;2.00;99.90
9939;DHT22;5008;50.656;7.188;2023-12-04T06:02:54;1.90;99.90
9939;DHT22;5008;50.656;7.188;2023-12-04T06:05:21;2.00;99.90
9939;DHT22;5008;50.656;7.188;2023-12-04T06:07:48;2.20;99.90
9939;DHT22;5008;50.656;7.188;2023-12-04T06:10:16;2.20;99.90
9939;DHT22;5008;50.656;7.188;2023-12-04T06:12:44;2.10;99.90
9939;DHT22;5008;50.656;7.188;2023-12-04T06:15:11;2.00;99.90
9939;DHT22;5008;50.656;7.188;2023-12-04T06:17:38;2.00;99.90
9939;DHT22;5008;50.656;7.188;2023-12-04T06:20:06;2.10;99.90
9939;DHT22;5008;50.656;7.188;2023-12-04T06:22:33;2.10;99.90
9939;DHT22;5008;50.656;7.188;2023-12-04T06:25:01;2.10;99.90
9939;DHT22;5008;50.656;7.188;2023-12-04T06:27:29;2.10;99.90
9939;DHT22;5008;50.656;7.188;2023-12-04T06:29:57;2.20;99.90
9939;DHT22;5008;50.656;7.188;2023-12-04T06:32:24;2.20;99.90
9939;DHT22;5008;50.656;7.188;2023-12-04T06:34:52;2.10;99.90
9939;DHT22;5008;50.656;7.188;2023-12-04T06:37:21;2.20;99.90
9939;DHT22;5008;50.656;7.188;2023-12-04T06:39:48;2.20;99.90
9939;DHT22;5008;50.656;7.188;2023-12-04T06:42:18;2.20;99.90
9939;DHT22;5008;50.656;7.188;2023-12-04T06:44:47;2.20;99.90
9939;DHT22;5008;50.656;7.188;2023-12-04T06:47:17;2.20;99.90
9939;DHT22;5008;50.656;7.188;2023-12-04T06:49:44;2.30;99.90
9939;DHT22;5008;50.656;7.188;2023-12-04T06:52:11;2.40;99.90
9939;DHT22;5008;50.656;7.188;2023-12-04T06:54:38;2.40;99.90
9939;DHT22;5008;50.656;7.188;2023-12-04T06:57:05;2.30;99.90
9939;DHT22;5008;50.656;7.188;2023-12-04T06:59:32;2.30;99.90
9939;DHT22;5008;50.656;7.188;2023-12-04T07:02:01;2.40;99.90
9939;DHT22;5008;50.656;7.188;2023-12-04T07:04:29;2.40;99.90
9939;DHT22;5008;50.656;7.188;2023-12-04T07:06:55;2.40;99.90
9939;DHT22;5008;50.656;7.188;2023-12-04T07:09:23;2.30;99.90
9939;DHT22;5008;50.656;7.188;2023-12-04T07:11:50;2.30;99.90
9939;DHT22;5008;50.656;7.188;2023-12-04T07:14:17;2.20;99.90
9939;DHT22;5008;50.656;7.188;2023-12-04T07:16:44;2.20;99.90
9939;DHT22;5008;50.656;7.188;2023-12-04T07:19:12;2.30;99.90
9939;DHT22;5008;50.656;7.188;2023-12-04T07:21:47;2.20;99.90
9939;DHT22;5008;50.656;7.188;2023-12-04T07:24:14;2.30;99.90
9939;DHT22;5008;50.656;7.188;2023-12-04T07:26:41;2.40;99.90
9939;DHT22;5008;50.656;7.188;2023-12-04T07:29:08;2.30;99.90
9939;DHT22;5008;50.656;7.188;2023-12-04T07:31:35;2.40;99.90
9939;DHT22;5008;50.656;7.188;2023-12-04T07:34:02;2.30;99.90
9939;DHT22;5008;50.656;7.188;2023-12-04T07:36:30;2.20;99.90
9939;DHT22;5008;50.656;7.188;2023-12-04T07:38:57;2.30;99.90
9939;DHT22;5008;50.656;7.188;2023-12-04T07:41:24;2.30;99.90
9939;DHT22;5008;50.656;7.188;2023-12-04T07:43:53;2.30;99.90
9939;DHT22;5008;50.656;7.188;2023-12-04T07:46:20;2.30;99.90
9939;DHT22;5008;50.656;7.188;2023-12-04T07:48:47;2.30;99.90
9939;DHT22;5008;50.656;7.188;2023-12-04T07:51:14;2.30;99.90
9939;DHT22;5008;50.656;7.188;2023-12-04T07:53:43;2.30;99.90
9939;DHT22;5008;50.656;7.188;2023-12-04T07:56:11;2.50;99.90
9939;DHT22;5008;50.656;7.188;2023-12-04T07:58:38;2.40;99.90
9939;DHT22;5008;50.656;7.188;2023-12-04T08:01:05;2.30;99.90
9939;DHT22;5008;50.656;7.188;2023-12-04T08:03:32;2.40;99.90
9939;DHT22;5008;50.656;7.188;2023-12-04T08:06:00;2.50;99.90
9939;DHT22;5008;50.656;7.188;2023-12-04T08:08:27;2.40;99.90
9939;DHT22;5008;50.656;7.188;2023-12-04T08:10:55;2.50;99.90
9939;DHT22;5008;50.656;7.188;2023-12-04T08:13:21;2.60;99.90
9939;DHT22;5008;50.656;7.188;2023-12-04T08:15:51;2.60;99.90
9939;DHT22;5008;50.656;7.188;2023-12-04T08:18:18;2.60;99.90
9939;DHT22;5008;50.656;7.188;2023-12-04T08:20:45;2.50;99.90
9939;DHT22;5008;50.656;7.188;2023-12-04T08:23:12;2.40;99.90
9939;DHT22;5008;50.656;7.188;2023-12-04T08:25:38;2.40;99.90
9939;DHT22;5008;50.656;7.188;2023-12-04T08:28:06;2.40;99.90
9939;DHT22;5008;50.656;7.188;2023-12-04T08:30:34;2.40;99.90
9939;DHT22;5008;50.656;7.188;2023-12-04T08:33:01;2.40;99.90
9939;DHT22;5008;50.656;7.188;2023-12-04T08:35:28;2.40;99.90
9939;DHT22;5008;50.656;7.188;2023-12-04T08:37:55;2.50;99.90
9939;DHT22;5008;50.656;7.188;2023-12-04T08:40:22;2.50;99.90
9939;DHT22;5008;50.656;7.188;2023-12-04T08:42:48;2.50;99.90
9939;DHT22;5008;50.656;7.188;2023-12-04T08:45:17;2.70;99.90
9939;DHT22;5008;50.656;7.188;2023-12-04T08:47:44;2.80;99.90
9939;DHT22;5008;50.656;7.188;2023-12-04T08:50:11;2.70;99.90
9939;DHT22;5008;50.656;7.188;2023-12-04T08:52:38;2.60;99.90
9939;DHT22;5008;50.656;7.188;2023-12-04T08:55:07;2.60;99.90
9939;DHT22;5008;50.656;7.188;2023-12-04T08:57:34;2.60;99.90
9939;DHT22;5008;50.656;7.188;2023-12-04T09:00:01;2.60;99.90
9939;DHT22;5008;50.656;7.188;2023-12-04T09:02:30;2.60;99.90
9939;DHT22;5008;50.656;7.188;2023-12-04T09:04:57;2.60;99.90
9939;DHT22;5008;50.656;7.188;2023-12-04T09:07:24;2.70;99.90
9939;DHT22;5008;50.656;7.188;2023-12-04T09:09:51;2.70;99.90
9939;DHT22;5008;50.656;7.188;2023-12-04T09:12:17;2.70;99.90
9939;DHT22;5008;50.656;7.188;2023-12-04T09:14:44;2.70;99.90
9939;DHT22;5008;50.656;7.188;2023-12-04T09:17:11;2.80;99.90
9939;DHT22;5008;50.656;7.188;2023-12-04T09:19:39;2.80;99.90
9939;DHT22;5008;50.656;7.188;2023-12-04T09:22:06;2.80;99.90
9939;DHT22;5008;50.656;7.188;2023-12-04T09:24:33;4.90;99.90
9939;DHT22;5008;50.656;7.188;2023-12-04T09:27:00;5.20;99.90
9939;DHT22;5008;50.656;7.188;2023-12-04T09:29:27;4.60;99.90
9939;DHT22;5008;50.656;7.188;2023-12-04T09:31:54;4.00;99.90
9939;DHT22;5008;50.656;7.188;2023-12-04T09:34:20;3.60;99.90
9939;DHT22;5008;50.656;7.188;2023-12-04T09:36:49;3.40;99.90
9939;DHT22;5008;50.656;7.188;2023-12-04T09:39:16;3.30;99.90
9939;DHT22;5008;50.656;7.188;2023-12-04T09:41:44;3.20;99.90
9939;DHT22;5008;50.656;7.188;2023-12-04T09:44:11;3.10;99.90
9939;DHT22;5008;50.656;7.188;2023-12-04T09:46:38;3.20;99.90
9939;DHT22;5008;50.656;7.188;2023-12-04T09:49:05;3.10;99.90
9939;DHT22;5008;50.656;7.188;2023-12-04T09:51:33;3.20;99.90
9939;DHT22;5008;50.656;7.188;2023-12-04T09:54:03;3.20;99.90
9939;DHT22;5008;50.656;7.188;2023-12-04T09:56:30;3.40;99.90
9939;DHT22;5008;50.656;7.188;2023-12-04T09:59:00;3.60;99.90
9939;DHT22;5008;50.656;7.188;2023-12-04T10:01:28;3.60;99.90
9939;DHT22;5008;50.656;7.188;2023-12-04T10:03:56;3.70;99.90
9939;DHT22;5008;50.656;7.188;2023-12-04T10:06:26;3.50;99.90
9939;DHT22;5008;50.656;7.188;2023-12-04T10:08:54;3.60;99.90
9939;DHT22;5008;50.656;7.188;2023-12-04T10:11:24;3.60;99.90
9939;DHT22;5008;50.656;7.188;2023-12-04T10:13:52;3.50;99.90
9939;DHT22;5008;50.656;7.188;2023-12-04T10:16:31;3.70;99.90
9939;DHT22;5008;50.656;7.188;2023-12-04T10:19:14;3.60;99.90
9939;DHT22;5008;50.656;7.188;2023-12-04T10:21:41;3.70;99.90
9939;DHT22;5008;50.656;7.188;2023-12-04T10:24:08;3.80;99.90
9939;DHT22;5008;50.656;7.188;2023-12-04T10:26:36;3.90;99.90
9939;DHT22;5008;50.656;7.188;2023-12-04T10:29:04;4.10;99.90
9939;DHT22;5008;50.656;7.188;2023-12-04T10:31:32;4.10;99.90
9939;DHT22;5008;50.656;7.188;2023-12-04T10:34:01;4.20;99.90
9939;DHT22;5008;50.656;7.188;2023-12-04T10:36:31;3.90;99.90
9939;DHT22;5008;50.656;7.188;2023-12-04T10:38:59;3.90;99.90
9939;DHT22;5008;50.656;7.188;2023-12-04T10:41:26;3.90;99.90
9939;DHT22;5008;50.656;7.188;2023-12-04T10:43:56;3.80;99.90
9939;DHT22;5008;50.656;7.188;2023-12-04T10:46:24;3.70;99.90
9939;DHT22;5008;50.656;7.188;2023-12-04T10:48:51;3.70;99.90
9939;DHT22;5008;50.656;7.188;2023-12-04T10:51:19;3.70;99.90
9939;DHT22;5008;50.656;7.188;2023-12-04T10:53:47;3.80;99.90
9939;DHT22;5008;50.656;7.188;2023-12-04T10:56:19;3.80;99.90
9939;DHT22;5008;50.656;7.188;2023-12-04T10:58:49;3.90;99.90
9939;DHT22;5008;50.656;7.188;2023-12-04T11:01:19;3.90;99.90
9939;DHT22;5008;50.656;7.188;2023-12-04T11:03:52;4.00;99.90
9939;DHT22;5008;50.656;7.188;2023-12-04T11:06:21;7.30;99.90
9939;DHT22;5008;50.656;7.188;2023-12-04T11:08:49;6.40;99.90
9939;DHT22;5008;50.656;7.188;2023-12-04T11:11:21;5.60;99.90
9939;DHT22;5008;50.656;7.188;2023-12-04T11:13:54;5.20;99.90
9939;DHT22;5008;50.656;7.188;2023-12-04T11:16:28;4.70;99.90
9939;DHT22;5008;50.656;7.188;2023-12-04T11:19:00;4.50;99.90
9939;DHT22;5008;50.656;7.188;2023-12-04T11:21:29;4.20;99.90
9939;DHT22;5008;50.656;7.188;2023-12-04T11:23:57;4.10;99.90
9939;DHT22;5008;50.656;7.188;2023-12-04T11:26:24;4.00;99.90
9939;DHT22;5008;50.656;7.188;2023-12-04T11:28:52;3.80;99.90
9939;DHT22;5008;50.656;7.188;2023-12-04T11:31:20;3.60;99.90
9939;DHT22;5008;50.656;7.188;2023-12-04T11:33:48;3.50;99.90
9939;DHT22;5008;50.656;7.188;2023-12-04T11:36:15;3.40;99.90
9939;DHT22;5008;50.656;7.188;2023-12-04T11:38:46;3.60;99.90
9939;DHT22;5008;50.656;7.188;2023-12-04T11:41:17;3.70;99.90
9939;DHT22;5008;50.656;7.188;2023-12-04T11:43:45;3.60;99.90
9939;DHT22;5008;50.656;7.188;2023-12-04T11:46:13;3.50;99.90
9939;DHT22;5008;50.656;7.188;2023-12-04T11:48:49;3.40;99.90
9939;DHT22;5008;50.656;7.188;2023-12-04T11:51:45;3.50;99.90
9939;DHT22;5008;50.656;7.188;2023-12-04T11:54:17;3.50;99.90
9939;DHT22;5008;50.656;7.188;2023-12-04T11:56:57;3.50;99.90
9939;DHT22;5008;50.656;7.188;2023-12-04T11:59:24;3.40;99.90
9939;DHT22;5008;50.656;7.188;2023-12-04T12:01:54;3.50;99.90
9939;DHT22;5008;50.656;7.188;2023-12-04T12:04:23;3.60;99.90
9939;DHT22;5008;50.656;7.188;2023-12-04T12:06:50;3.60;99.90
9939;DHT22;5008;50.656;7.188;2023-12-04T12:09:17;3.60;99.90
9939;DHT22;5008;50.656;7.188;2023-12-04T12:11:44;3.60;99.90
9939;DHT22;5008;50.656;7.188;2023-12-04T12:14:11;3.50;99.90
9939;DHT22;5008;50.656;7.188;2023-12-04T12:16:39;3.50;99.90
9939;DHT22;5008;50.656;7.188;2023-12-04T12:19:05;3.50;99.90
9939;DHT22;5008;50.656;7.188;2023-12-04T12:21:34;3.50;99.90
9939;DHT22;5008;50.656;7.188;2023-12-04T12:24:00;3.50;99.90
9939;DHT22;5008;50.656;7.188;2023-12-04T12:26:28;3.50;99.90
9939;DHT22;5008;50.656;7.188;2023-12-04T12:28:56;3.50;99.90
9939;DHT22;5008;50.656;7.188;2023-12-04T12:31:23;3.50;99.90
9939;DHT22;5008;50.656;7.188;2023-12-04T12:33:55;3.50;99.90
9939;DHT22;5008;50.656;7.188;2023-12-04T12:36:31;3.60;99.90
9939;DHT22;5008;50.656;7.188;2023-12-04T12:38:59;3.60;99.90
9939;DHT22;5008;50.656;7.188;2023-12-04T12:41:29;4.00;99.90
9939;DHT22;5008;50.656;7.188;2023-12-04T12:44:01;4.00;99.90
9939;DHT22;5008;50.656;7.188;2023-12-04T12:46:29;3.90;99.90
9939;DHT22;5008;50.656;7.188;2023-12-04T12:48:56;3.80;99.90
9939;DHT22;5008;50.656;7.188;2023-12-04T12:51:23;3.80;99.90
9939;DHT22;5008;50.656;7.188;2023-12-04T12:53:50;3.80;99.90
9939;DHT22;5008;50.656;7.188;2023-12-04T12:56:18;3.70;99.90
9939;DHT22;5008;50.656;7.188;2023-12-04T12:58:47;3.70;99.90
9939;DHT22;5008;50.656;7.188;2023-12-04T13:01:14;3.70;99.90
9939;DHT22;5008;50.656;7.188;2023-12-04T13:03:40;3.80;99.90
9939;DHT22;5008;50.656;7.188;2023-12-04T13:06:11;3.80;99.90
9939;DHT22;5008;50.656;7.188;2023-12-04T13:08:38;3.80;99.90
9939;DHT22;5008;50.656;7.188;2023-12-04T13:11:05;3.70;99.90
9939;DHT22;5008;50.656;7.188;2023-12-04T13:13:34;3.60;99.90
9939;DHT22;5008;50.656;7.188;2023-12-04T13:16:00;3.60;99.90
9939;DHT22;5008;50.656;7.188;2023-12-04T13:18:27;3.60;99.90
9939;DHT22;5008;50.656;7.188;2023-12-04T13:20:54;3.50;99.90
9939;DHT22;5008;50.656;7.188;2023-12-04T13:23:21;3.50;99.90
9939;DHT22;5008;50.656;7.188;2023-12-04T13:25:50;3.60;99.90
9939;DHT22;5008;50.656;7.188;2023-12-04T13:28:17;3.60;99.90
9939;DHT22;5008;50.656;7.188;2023-12-04T13:30:45;3.60;99.90
9939;DHT22;5008;50.656;7.188;2023-12-04T13:33:12;3.60;99.90
9939;DHT22;5008;50.656;7.188;2023-12-04T13:35:39;3.70;99.90
9939;DHT22;5008;50.656;7.188;2023-12-04T13:38:06;3.70;99.90
9939;DHT22;5008;50.656;7.188;2023-12-04T13:40:38;3.70;99.90
9939;DHT22;5008;50.656;7.188;2023-12-04T13:43:05;3.60;99.90
9939;DHT22;5008;50.656;7.188;2023-12-04T13:45:51;3.60;99.90
9939;DHT22;5008;50.656;7.188;2023-12-04T13:48:18;3.80;99.90
9939;DHT22;5008;50.656;7.188;2023-12-04T13:50:46;3.80;99.90
9939;DHT22;5008;50.656;7.188;2023-12-04T13:53:15;3.70;99.90
9939;DHT22;5008;50.656;7.188;2023-12-04T13:55:46;3.70;99.90
9939;DHT22;5008;50.656;7.188;2023-12-04T13:58:34;3.80;99.90
9939;DHT22;5008;50.656;7.188;2023-12-04T14:01:10;3.80;99.90
9939;DHT22;5008;50.656;7.188;2023-12-04T14:03:40;3.80;99.90
9939;DHT22;5008;50.656;7.188;2023-12-04T14:06:15;3.80;99.90
9939;DHT22;5008;50.656;7.188;2023-12-04T14:08:42;3.60;99.90
9939;DHT22;5008;50.656;7.188;2023-12-04T14:11:09;3.60;99.90
9939;DHT22;5008;50.656;7.188;2023-12-04T14:13:36;3.60;99.90
9939;DHT22;5008;50.656;7.188;2023-12-04T14:16:05;3.70;99.90
9939;DHT22;5008;50.656;7.188;2023-12-04T14:18:33;3.60;99.90
9939;DHT22;5008;50.656;7.188;2023-12-04T14:21:00;3.50;99.90
9939;DHT22;5008;50.656;7.188;2023-12-04T14:23:27;3.50;99.90
9939;DHT22;5008;50.656;7.188;2023-12-04T14:25:54;3.50;99.90
9939;DHT22;5008;50.656;7.188;2023-12-04T14:28:20;3.50;99.90
9939;DHT22;5008;50.656;7.188;2023-12-04T14:30:48;3.60;99.90
9939;DHT22;5008;50.656;7.188;2023-12-04T14:33:15;3.60;99.90
9939;DHT22;5008;50.656;7.188;2023-12-04T14:35:43;3.60;99.90
9939;DHT22;5008;50.656;7.188;2023-12-04T14:38:16;3.50;99.90
9939;DHT22;5008;50.656;7.188;2023-12-04T14:40:43;3.50;99.90
9939;DHT22;5008;50.656;7.188;2023-12-04T14:43:10;3.70;99.90
9939;DHT22;5008;50.656;7.188;2023-12-04T14:45:37;4.50;99.90
9939;DHT22;5008;50.656;7.188;2023-12-04T14:48:05;4.40;99.90
9939;DHT22;5008;50.656;7.188;2023-12-04T14:50:35;4.60;99.90
9939;DHT22;5008;50.656;7.188;2023-12-04T14:53:05;4.20;99.90
9939;DHT22;5008;50.656;7.188;2023-12-04T14:55:42;3.90;99.90
9939;DHT22;5008;50.656;7.188;2023-12-04T14:58:29;3.90;99.90
9939;DHT22;5008;50.656;7.188;2023-12-04T15:01:13;3.70;99.90
9939;DHT22;5008;50.656;7.188;2023-12-04T15:03:58;3.50;99.90
9939;DHT22;5008;50.656;7.188;2023-12-04T15:06:57;3.50;99.90
9939;DHT22;5008;50.656;7.188;2023-12-04T15:09:55;3.50;99.90
9939;DHT22;5008;50.656;7.188;2023-12-04T15:12:48;3.50;99.90
9939;DHT22;5008;50.656;7.188;2023-12-04T15:15:59;3.50;99.90
9939;DHT22;5008;50.656;7.188;2023-12-04T15:18:50;3.40;99.90
9939;DHT22;5008;50.656;7.188;2023-12-04T15:21:49;3.40;99.90
9939;DHT22;5008;50.656;7.188;2023-12-04T15:24:17;3.50;99.90
9939;DHT22;5008;50.656;7.188;2023-12-04T15:26:46;3.40;99.90
9939;DHT22;5008;50.656;7.188;2023-12-04T15:29:11;3.30;99.90
9939;DHT22;5008;50.656;7.188;2023-12-04T15:31:40;3.40;99.90
9939;DHT22;5008;50.656;7.188;2023-12-04T15:34:05;3.40;99.90
9939;DHT22;5008;50.656;7.188;2023-12-04T15:36:34;3.40;99.90
9939;DHT22;5008;50.656;7.188;2023-12-04T15:39:01;3.30;99.90
9939;DHT22;5008;50.656;7.188;2023-12-04T15:41:27;3.40;99.90
9939;DHT22;5008;50.656;7.188;2023-12-04T15:43:55;3.50;99.90
9939;DHT22;5008;50.656;7.188;2023-12-04T15:46:20;3.50;99.90
9939;DHT22;5008;50.656;7.188;2023-12-04T15:48:47;3.50;99.90
9939;DHT22;5008;50.656;7.188;2023-12-04T15:51:14;3.50;99.90
9939;DHT22;5008;50.656;7.188;2023-12-04T15:53:40;3.80;99.90
9939;DHT22;5008;50.656;7.188;2023-12-04T15:56:08;3.70;99.90
9939;DHT22;5008;50.656;7.188;2023-12-04T15:58:34;3.60;99.90
9939;DHT22;5008;50.656;7.188;2023-12-04T16:01:02;3.60;99.90
9939;DHT22;5008;50.656;7.188;2023-12-04T16:03:31;3.60;99.90
9939;DHT22;5008;50.656;7.188;2023-12-04T16:05:58;4.00;99.90
9939;DHT22;5008;50.656;7.188;2023-12-04T16:08:25;3.90;99.90
9939;DHT22;5008;50.656;7.188;2023-12-04T16:10:51;3.80;99.90
9939;DHT22;5008;50.656;7.188;2023-12-04T16:13:18;3.70;99.90
9939;DHT22;5008;50.656;7.188;2023-12-04T16:15:45;3.60;99.90
9939;DHT22;5008;50.656;7.188;2023-12-04T16:18:15;3.70;99.90
9939;DHT22;5008;50.656;7.188;2023-12-04T16:20:41;3.60;99.90
9939;DHT22;5008;50.656;7.188;2023-12-04T16:23:08;3.70;99.90
9939;DHT22;5008;50.656;7.188;2023-12-04T16:25:36;3.60;99.90
9939;DHT22;5008;50.656;7.188;2023-12-04T16:28:03;3.50;99.90
9939;DHT22;5008;50.656;7.188;2023-12-04T16:30:32;3.50;99.90
9939;DHT22;5008;50.656;7.188;2023-12-04T16:32:59;3.50;99.90
9939;DHT22;5008;50.656;7.188;2023-12-04T16:35:27;3.70;99.90
9939;DHT22;5008;50.656;7.188;2023-12-04T16:37:54;3.60;99.90
9939;DHT22;5008;50.656;7.188;2023-12-04T16:40:21;3.60;99.90
9939;DHT22;5008;50.656;7.188;2023-12-04T16:42:48;3.60;99.90
9939;DHT22;5008;50.656;7.188;2023-12-04T16:45:15;3.60;99.90
9939;DHT22;5008;50.656;7.188;2023-12-04T16:47:42;3.60;99.90
9939;DHT22;5008;50.656;7.188;2023-12-04T16:50:09;3.60;99.90
9939;DHT22;5008;50.656;7.188;2023-12-04T16:52:37;3.50;99.90
9939;DHT22;5008;50.656;7.188;2023-12-04T16:55:05;3.60;99.90
9939;DHT22;5008;50.656;7.188;2023-12-04T16:57:33;3.60;99.90
9939;DHT22;5008;50.656;7.188;2023-12-04T17:00:00;3.60;99.90
9939;DHT22;5008;50.656;7.188;2023-12-04T17:02:27;3.50;99.90
9939;DHT22;5008;50.656;7.188;2023-12-04T17:04:53;3.50;99.90
9939;DHT22;5008;50.656;7.188;2023-12-04T17:07:20;3.50;99.90
9939;DHT22;5008;50.656;7.188;2023-12-04T17:09:48;3.50;99.90
9939;DHT22;5008;50.656;7.188;2023-12-04T17:12:15;3.50;99.90
9939;DHT22;5008;50.656;7.188;2023-12-04T17:14:42;3.50;99.90
9939;DHT22;5008;50.656;7.188;2023-12-04T17:17:09;3.50;99.90
9939;DHT22;5008;50.656;7.188;2023-12-04T17:19:36;3.40;99.90
9939;DHT22;5008;50.656;7.188;2023-12-04T17:22:03;3.50;99.90
9939;DHT22;5008;50.656;7.188;2023-12-04T17:24:29;3.50;99.90
9939;DHT22;5008;50.656;7.188;2023-12-04T17:26:59;3.60;99.90
9939;DHT22;5008;50.656;7.188;2023-12-04T17:29:30;3.60;99.90
9939;DHT22;5008;50.656;7.188;2023-12-04T17:31:57;4.40;99.90
9939;DHT22;5008;50.656;7.188;2023-12-04T17:34:27;4.20;99.90
9939;DHT22;5008;50.656;7.188;2023-12-04T17:36:54;4.00;99.90
9939;DHT22;5008;50.656;7.188;2023-12-04T17:39:21;3.80;99.90
9939;DHT22;5008;50.656;7.188;2023-12-04T17:41:47;3.70;99.90
9939;DHT22;5008;50.656;7.188;2023-12-04T17:44:15;3.70;99.90
9939;DHT22;5008;50.656;7.188;2023-12-04T17:46:42;3.80;99.90
9939;DHT22;5008;50.656;7.188;2023-12-04T17:49:09;3.70;99.90
9939;DHT22;5008;50.656;7.188;2023-12-04T17:51:39;3.60;99.90
9939;DHT22;5008;50.656;7.188;2023-12-04T17:54:05;3.60;99.90
9939;DHT22;5008;50.656;7.188;2023-12-04T17:56:32;3.60;99.90
9939;DHT22;5008;50.656;7.188;2023-12-04T17:59:00;3.50;99.90
9939;DHT22;5008;50.656;7.188;2023-12-04T18:01:29;3.60;99.90
9939;DHT22;5008;50.656;7.188;2023-12-04T18:03:56;3.50;99.90
9939;DHT22;5008;50.656;7.188;2023-12-04T18:06:26;3.50;99.90
9939;DHT22;5008;50.656;7.188;2023-12-04T18:08:53;3.40;99.90
9939;DHT22;5008;50.656;7.188;2023-12-04T18:11:20;3.30;99.90
9939;DHT22;5008;50.656;7.188;2023-12-04T18:13:47;3.30;99.90
9939;DHT22;5008;50.656;7.188;2023-12-04T18:16:14;3.30;99.90
9939;DHT22;5008;50.656;7.188;2023-12-04T18:18:42;3.40;99.90
9939;DHT22;5008;50.656;7.188;2023-12-04T18:21:09;3.60;99.90
9939;DHT22;5008;50.656;7.188;2023-12-04T18:23:42;3.50;99.90
9939;DHT22;5008;50.656;7.188;2023-12-04T18:26:10;3.40;99.90
9939;DHT22;5008;50.656;7.188;2023-12-04T18:28:38;3.40;99.90
9939;DHT22;5008;50.656;7.188;2023-12-04T18:31:06;3.40;99.90
9939;DHT22;5008;50.656;7.188;2023-12-04T18:33:45;3.40;99.90
9939;DHT22;5008;50.656;7.188;2023-12-04T18:36:15;3.40;99.90
9939;DHT22;5008;50.656;7.188;2023-12-04T18:38:46;3.40;99.90
9939;DHT22;5008;50.656;7.188;2023-12-04T18:41:17;3.40;99.90
9939;DHT22;5008;50.656;7.188;2023-12-04T18:43:44;3.40;99.90
9939;DHT22;5008;50.656;7.188;2023-12-04T18:46:12;3.50;99.90
9939;DHT22;5008;50.656;7.188;2023-12-04T18:48:39;3.50;99.90
9939;DHT22;5008;50.656;7.188;2023-12-04T18:51:11;3.60;99.90
9939;DHT22;5008;50.656;7.188;2023-12-04T18:53:40;3.60;99.90
9939;DHT22;5008;50.656;7.188;2023-12-04T18:56:08;3.60;99.90
9939;DHT22;5008;50.656;7.188;2023-12-04T18:58:35;3.60;99.90
9939;DHT22;5008;50.656;7.188;2023-12-04T19:01:02;3.60;99.90
9939;DHT22;5008;50.656;7.188;2023-12-04T19:03:29;3.60;99.90
9939;DHT22;5008;50.656;7.188;2023-12-04T19:05:56;3.50;99.90
9939;DHT22;5008;50.656;7.188;2023-12-04T19:08:24;3.50;99.90
9939;DHT22;5008;50.656;7.188;2023-12-04T19:10:51;3.60;99.90
9939;DHT22;5008;50.656;7.188;2023-12-04T19:13:18;3.60;99.90
9939;DHT22;5008;50.656;7.188;2023-12-04T19:15:45;3.60;99.90
9939;DHT22;5008;50.656;7.188;2023-12-04T19:18:12;3.60;99.90
9939;DHT22;5008;50.656;7.188;2023-12-04T19:20:38;3.60;99.90
9939;DHT22;5008;50.656;7.188;2023-12-04T19:23:05;3.60;99.90
9939;DHT22;5008;50.656;7.188;2023-12-04T19:25:33;3.80;99.90
9939;DHT22;5008;50.656;7.188;2023-12-04T19:28:04;3.80;99.90
9939;DHT22;5008;50.656;7.188;2023-12-04T19:30:31;3.80;99.90
9939;DHT22;5008;50.656;7.188;2023-12-04T19:32:58;3.80;99.90
9939;DHT22;5008;50.656;7.188;2023-12-04T19:35:25;3.80;99.90
9939;DHT22;5008;50.656;7.188;2023-12-04T19:37:51;3.80;99.90
9939;DHT22;5008;50.656;7.188;2023-12-04T19:40:19;3.70;99.90
9939;DHT22;5008;50.656;7.188;2023-12-04T19:42:47;3.80;99.90
9939;DHT22;5008;50.656;7.188;2023-12-04T19:45:14;3.90;99.90
9939;DHT22;5008;50.656;7.188;2023-12-04T19:47:42;4.00;99.90
9939;DHT22;5008;50.656;7.188;2023-12-04T19:50:10;3.90;99.90
9939;DHT22;5008;50.656;7.188;2023-12-04T19:52:37;3.90;99.90
9939;DHT22;5008;50.656;7.188;2023-12-04T19:55:05;3.90;99.90
9939;DHT22;5008;50.656;7.188;2023-12-04T19:57:32;3.90;99.90
9939;DHT22;5008;50.656;7.188;2023-12-04T20:00:00;3.90;99.90
9939;DHT22;5008;50.656;7.188;2023-12-04T20:02:28;3.90;99.90
9939;DHT22;5008;50.656;7.188;2023-12-04T20:04:56;3.90;99.90
9939;DHT22;5008;50.656;7.188;2023-12-04T20:07:22;3.90;99.90
9939;DHT22;5008;50.656;7.188;2023-12-04T20:09:49;3.90;99.90
9939;DHT22;5008;50.656;7.188;2023-12-04T20:12:16;4.00;99.90
9939;DHT22;5008;50.656;7.188;2023-12-04T20:14:46;4.50;99.90
9939;DHT22;5008;50.656;7.188;2023-12-04T20:17:16;4.80;99.90
9939;DHT22;5008;50.656;7.188;2023-12-04T20:19:43;4.60;99.90
9939;DHT22;5008;50.656;7.188;2023-12-04T20:22:10;4.40;99.90
9939;DHT22;5008;50.656;7.188;2023-12-04T20:24:37;4.20;99.90
9939;DHT22;5008;50.656;7.188;2023-12-04T20:27:04;4.10;99.90
9939;DHT22;5008;50.656;7.188;2023-12-04T20:29:31;4.10;99.90
9939;DHT22;5008;50.656;7.188;2023-12-04T20:31:58;4.00;99.90
9939;DHT22;5008;50.656;7.188;2023-12-04T20:34:26;4.00;99.90
9939;DHT22;5008;50.656;7.188;2023-12-04T20:36:55;4.00;99.90
9939;DHT22;5008;50.656;7.188;2023-12-04T20:39:22;4.00;99.90
9939;DHT22;5008;50.656;7.188;2023-12-04T20:41:49;3.90;99.90
9939;DHT22;5008;50.656;7.188;2023-12-04T20:44:16;3.90;99.90
9939;DHT22;5008;50.656;7.188;2023-12-04T20:46:43;3.90;99.90
9939;DHT22;5008;50.656;7.188;2023-12-04T20:49:09;3.90;99.90
9939;DHT22;5008;50.656;7.188;2023-12-04T20:51:39;3.90;99.90
9939;DHT22;5008;50.656;7.188;2023-12-04T20:54:05;3.90;99.90
9939;DHT22;5008;50.656;7.188;2023-12-04T20:56:32;3.90;99.90
9939;DHT22;5008;50.656;7.188;2023-12-04T20:58:59;4.00;99.90
9939;DHT22;5008;50.656;7.188;2023-12-04T21:01:26;3.90;99.90
9939;DHT22;5008;50.656;7.188;2023-12-04T21:03:53;3.90;99.90
9939;DHT22;5008;50.656;7.188;2023-12-04T21:06:20;4.00;99.90
9939;DHT22;5008;50.656;7.188;2023-12-04T21:08:47;4.00;99.90
9939;DHT22;5008;50.656;7.188;2023-12-04T21:11:13;4.00;99.90
9939;DHT22;5008;50.656;7.188;2023-12-04T21:13:40;4.00;99.90
9939;DHT22;5008;50.656;7.188;2023-12-04T21:16:08;4.00;99.90
9939;DHT22;5008;50.656;7.188;2023-12-04T21:18:35;3.90;99.90
9939;DHT22;5008;50.656;7.188;2023-12-04T21:21:02;4.00;99.90
9939;DHT22;5008;50.656;7.188;2023-12-04T21:23:29;3.90;99.90
9939;DHT22;5008;50.656;7.188;2023-12-04T21:25:57;4.00;99.90